sensor_id;sensor_type;location;lat;lon;timestamp;P1;durP1;ratioP1;P2;durP2;ratioP2
54005;SDS011;39919;38.160;-122.260;2022-08-04T00:02:02;0.68;;;0.40;;
54005;SDS011;39919;38.160;-122.260;2022-08-04T00:04:40;1.20;;;0.40;;
54005;SDS011;39919;38.160;-122.260;2022-08-04T00:07:13;1.92;;;0.32;;
54005;SDS011;39919;38.160;-122.260;2022-08-04T00:09:46;4.20;;;0.30;;
54005;SDS011;39919;38.160;-122.260;2022-08-04T00:12:22;1.02;;;0.40;;
54005;SDS011;39919;38.160;-122.260;2022-08-04T00:14:56;0.82;;;0.30;;
54005;SDS011;39919;38.160;-122.260;2022-08-04T00:17:31;2.75;;;0.30;;
54005;SDS011;39919;38.160;-122.260;2022-08-04T00:20:04;2.70;;;0.32;;
54005;SDS011;39919;38.160;-122.260;2022-08-04T00:22:34;1.17;;;0.40;;
54005;SDS011;39919;38.160;-122.260;2022-08-04T00:25:08;0.70;;;0.40;;
54005;SDS011;39919;38.160;-122.260;2022-08-04T00:27:38;2.75;;;0.50;;
54005;SDS011;39919;38.160;-122.260;2022-08-04T00:30:08;2.90;;;0.40;;
54005;SDS011;39919;38.160;-122.260;2022-08-04T00:32:39;6.35;;;0.40;;
54005;SDS011;39919;38.160;-122.260;2022-08-04T00:35:12;0.90;;;0.65;;
54005;SDS011;39919;38.160;-122.260;2022-08-04T00:37:41;3.25;;;0.63;;
54005;SDS011;39919;38.160;-122.260;2022-08-04T00:40:20;1.13;;;0.38;;
54005;SDS011;39919;38.160;-122.260;2022-08-04T00:42:53;1.60;;;0.50;;
54005;SDS011;39919;38.160;-122.260;2022-08-04T00:45:37;0.98;;;0.40;;
54005;SDS011;39919;38.160;-122.260;2022-08-04T00:48:11;0.75;;;0.38;;
54005;SDS011;39919;38.160;-122.260;2022-08-04T00:50:49;2.72;;;0.65;;
54005;SDS011;39919;38.160;-122.260;2022-08-04T00:53:23;1.00;;;0.40;;
54005;SDS011;39919;38.160;-122.260;2022-08-04T00:58:46;2.85;;;0.63;;
54005;SDS011;39919;38.160;-122.260;2022-08-04T01:01:28;2.85;;;0.63;;
54005;SDS011;39919;38.160;-122.260;2022-08-04T01:04:02;3.42;;;0.90;;
54005;SDS011;39919;38.160;-122.260;2022-08-04T01:06:35;4.22;;;0.80;;
54005;SDS011;39919;38.160;-122.260;2022-08-04T01:09:12;2.05;;;0.50;;
54005;SDS011;39919;38.160;-122.260;2022-08-04T01:11:48;2.13;;;0.55;;
54005;SDS011;39919;38.160;-122.260;2022-08-04T01:17:17;2.05;;;0.60;;
54005;SDS011;39919;38.160;-122.260;2022-08-04T01:22:46;1.48;;;0.52;;
54005;SDS011;39919;38.160;-122.260;2022-08-04T01:25:27;2.75;;;0.73;;
54005;SDS011;39919;38.160;-122.260;2022-08-04T01:28:04;2.78;;;0.73;;
54005;SDS011;39919;38.160;-122.260;2022-08-04T01:30:36;1.80;;;0.73;;
54005;SDS011;39919;38.160;-122.260;2022-08-04T01:33:07;1.75;;;0.60;;
54005;SDS011;39919;38.160;-122.260;2022-08-04T01:35:37;2.50;;;0.60;;
54005;SDS011;39919;38.160;-122.260;2022-08-04T01:38:10;3.33;;;0.55;;
54005;SDS011;39919;38.160;-122.260;2022-08-04T01:40:41;1.13;;;0.52;;
54005;SDS011;39919;38.160;-122.260;2022-08-04T01:43:12;2.22;;;0.80;;
54005;SDS011;39919;38.160;-122.260;2022-08-04T01:45:42;5.80;;;0.98;;
54005;SDS011;39919;38.160;-122.260;2022-08-04T01:48:17;2.20;;;0.50;;
54005;SDS011;39919;38.160;-122.260;2022-08-04T01:50:45;2.42;;;0.98;;
54005;SDS011;39919;38.160;-122.260;2022-08-04T01:53:14;3.03;;;0.80;;
54005;SDS011;39919;38.160;-122.260;2022-08-04T01:55:43;5.72;;;0.77;;
54005;SDS011;39919;38.160;-122.260;2022-08-04T01:58:15;3.47;;;0.93;;
54005;SDS011;39919;38.160;-122.260;2022-08-04T02:00:49;4.93;;;0.80;;
54005;SDS011;39919;38.160;-122.260;2022-08-04T02:03:23;5.50;;;0.82;;
54005;SDS011;39919;38.160;-122.260;2022-08-04T02:06:07;1.42;;;0.63;;
54005;SDS011;39919;38.160;-122.260;2022-08-04T02:08:39;2.38;;;0.98;;
54005;SDS011;39919;38.160;-122.260;2022-08-04T02:11:14;2.78;;;0.70;;
54005;SDS011;39919;38.160;-122.260;2022-08-04T02:13:47;3.25;;;1.10;;
54005;SDS011;39919;38.160;-122.260;2022-08-04T02:16:23;5.07;;;1.17;;
54005;SDS011;39919;38.160;-122.260;2022-08-04T02:19:00;3.08;;;1.02;;
54005;SDS011;39919;38.160;-122.260;2022-08-04T02:21:29;2.45;;;0.77;;
54005;SDS011;39919;38.160;-122.260;2022-08-04T02:24:00;4.88;;;1.10;;
54005;SDS011;39919;38.160;-122.260;2022-08-04T02:26:29;3.55;;;1.15;;
54005;SDS011;39919;38.160;-122.260;2022-08-04T02:29:03;3.00;;;0.88;;
54005;SDS011;39919;38.160;-122.260;2022-08-04T02:31:40;7.35;;;1.40;;
54005;SDS011;39919;38.160;-122.260;2022-08-04T02:34:12;2.92;;;0.82;;
54005;SDS011;39919;38.160;-122.260;2022-08-04T02:36:44;3.80;;;1.30;;
54005;SDS011;39919;38.160;-122.260;2022-08-04T02:39:13;4.15;;;0.90;;
54005;SDS011;39919;38.160;-122.260;2022-08-04T02:41:46;2.33;;;0.65;;
54005;SDS011;39919;38.160;-122.260;2022-08-04T02:44:19;6.50;;;1.42;;
54005;SDS011;39919;38.160;-122.260;2022-08-04T02:46:51;2.75;;;0.90;;
54005;SDS011;39919;38.160;-122.260;2022-08-04T02:49:20;3.00;;;0.85;;
54005;SDS011;39919;38.160;-122.260;2022-08-04T02:51:52;4.53;;;0.90;;
54005;SDS011;39919;38.160;-122.260;2022-08-04T02:54:22;5.53;;;0.82;;
54005;SDS011;39919;38.160;-122.260;2022-08-04T02:56:51;2.22;;;1.00;;
54005;SDS011;39919;38.160;-122.260;2022-08-04T02:59:24;5.85;;;1.35;;
54005;SDS011;39919;38.160;-122.260;2022-08-04T03:01:56;4.07;;;1.13;;
54005;SDS011;39919;38.160;-122.260;2022-08-04T03:04:28;3.85;;;1.10;;
54005;SDS011;39919;38.160;-122.260;2022-08-04T03:07:17;4.38;;;1.40;;
54005;SDS011;39919;38.160;-122.260;2022-08-04T03:09:58;3.80;;;0.90;;
54005;SDS011;39919;38.160;-122.260;2022-08-04T03:12:38;2.85;;;1.02;;
54005;SDS011;39919;38.160;-122.260;2022-08-04T03:21:07;7.63;;;0.73;;
54005;SDS011;39919;38.160;-122.260;2022-08-04T03:23:58;4.57;;;1.02;;
54005;SDS011;39919;38.160;-122.260;2022-08-04T03:26:45;1.88;;;0.70;;
54005;SDS011;39919;38.160;-122.260;2022-08-04T03:29:27;6.35;;;1.10;;
54005;SDS011;39919;38.160;-122.260;2022-08-04T03:32:06;7.50;;;1.63;;
54005;SDS011;39919;38.160;-122.260;2022-08-04T03:34:45;6.10;;;1.63;;
54005;SDS011;39919;38.160;-122.260;2022-08-04T03:40:31;4.40;;;1.60;;
54005;SDS011;39919;38.160;-122.260;2022-08-04T03:43:11;4.82;;;1.67;;
54005;SDS011;39919;38.160;-122.260;2022-08-04T03:45:51;7.78;;;1.63;;
54005;SDS011;39919;38.160;-122.260;2022-08-04T03:51:18;6.47;;;1.65;;
54005;SDS011;39919;38.160;-122.260;2022-08-04T03:59:26;4.60;;;1.20;;
54005;SDS011;39919;38.160;-122.260;2022-08-04T04:04:57;3.78;;;1.20;;
54005;SDS011;39919;38.160;-122.260;2022-08-04T04:07:39;6.57;;;1.00;;
54005;SDS011;39919;38.160;-122.260;2022-08-04T04:13:02;4.20;;;0.70;;
54005;SDS011;39919;38.160;-122.260;2022-08-04T04:15:41;5.55;;;0.93;;
54005;SDS011;39919;38.160;-122.260;2022-08-04T04:18:15;4.40;;;1.00;;
54005;SDS011;39919;38.160;-122.260;2022-08-04T04:20:50;5.65;;;1.75;;
54005;SDS011;39919;38.160;-122.260;2022-08-04T04:23:29;2.45;;;1.08;;
54005;SDS011;39919;38.160;-122.260;2022-08-04T04:26:03;3.97;;;1.10;;
54005;SDS011;39919;38.160;-122.260;2022-08-04T04:31:34;5.00;;;1.13;;
54005;SDS011;39919;38.160;-122.260;2022-08-04T04:34:07;4.60;;;0.93;;
54005;SDS011;39919;38.160;-122.260;2022-08-04T04:36:45;5.95;;;1.42;;
54005;SDS011;39919;38.160;-122.260;2022-08-04T04:39:19;2.38;;;0.90;;
54005;SDS011;39919;38.160;-122.260;2022-08-04T04:41:58;4.10;;;0.88;;
54005;SDS011;39919;38.160;-122.260;2022-08-04T04:47:18;6.07;;;1.25;;
54005;SDS011;39919;38.160;-122.260;2022-08-04T04:49:53;2.90;;;1.10;;
54005;SDS011;39919;38.160;-122.260;2022-08-04T04:52:25;4.35;;;1.38;;
54005;SDS011;39919;38.160;-122.260;2022-08-04T04:54:57;3.63;;;1.25;;
54005;SDS011;39919;38.160;-122.260;2022-08-04T04:57:29;4.80;;;0.80;;
54005;SDS011;39919;38.160;-122.260;2022-08-04T05:00:03;7.45;;;1.65;;
54005;SDS011;39919;38.160;-122.260;2022-08-04T05:02:53;5.18;;;1.30;;
54005;SDS011;39919;38.160;-122.260;2022-08-04T05:05:32;3.78;;;1.70;;
54005;SDS011;39919;38.160;-122.260;2022-08-04T05:08:25;6.07;;;1.25;;
54005;SDS011;39919;38.160;-122.260;2022-08-04T05:13:47;9.18;;;1.98;;
54005;SDS011;39919;38.160;-122.260;2022-08-04T05:16:20;5.53;;;1.40;;
54005;SDS011;39919;38.160;-122.260;2022-08-04T05:18:56;6.97;;;1.85;;
54005;SDS011;39919;38.160;-122.260;2022-08-04T05:21:31;12.23;;;2.55;;
54005;SDS011;39919;38.160;-122.260;2022-08-04T05:24:02;8.70;;;1.30;;
54005;SDS011;39919;38.160;-122.260;2022-08-04T05:26:32;6.80;;;1.65;;
54005;SDS011;39919;38.160;-122.260;2022-08-04T05:29:05;7.40;;;1.38;;
54005;SDS011;39919;38.160;-122.260;2022-08-04T05:34:10;9.85;;;2.22;;
54005;SDS011;39919;38.160;-122.260;2022-08-04T05:36:41;6.63;;;2.08;;
54005;SDS011;39919;38.160;-122.260;2022-08-04T05:39:13;5.88;;;1.33;;
54005;SDS011;39919;38.160;-122.260;2022-08-04T05:41:43;10.95;;;2.22;;
54005;SDS011;39919;38.160;-122.260;2022-08-04T05:44:12;12.05;;;2.90;;
54005;SDS011;39919;38.160;-122.260;2022-08-04T05:46:42;12.07;;;2.95;;
54005;SDS011;39919;38.160;-122.260;2022-08-04T05:49:14;11.02;;;3.10;;
54005;SDS011;39919;38.160;-122.260;2022-08-04T05:51:43;14.45;;;3.40;;
54005;SDS011;39919;38.160;-122.260;2022-08-04T05:54:14;19.45;;;3.53;;
54005;SDS011;39919;38.160;-122.260;2022-08-04T05:56:43;10.02;;;2.38;;
54005;SDS011;39919;38.160;-122.260;2022-08-04T05:59:12;5.72;;;1.75;;
54005;SDS011;39919;38.160;-122.260;2022-08-04T06:01:43;13.73;;;3.13;;
54005;SDS011;39919;38.160;-122.260;2022-08-04T06:04:15;15.65;;;3.17;;
54005;SDS011;39919;38.160;-122.260;2022-08-04T06:06:45;19.63;;;3.63;;
54005;SDS011;39919;38.160;-122.260;2022-08-04T06:09:16;18.35;;;3.15;;
54005;SDS011;39919;38.160;-122.260;2022-08-04T06:11:44;13.80;;;2.70;;
54005;SDS011;39919;38.160;-122.260;2022-08-04T06:14:13;8.80;;;2.97;;
54005;SDS011;39919;38.160;-122.260;2022-08-04T06:16:43;8.93;;;2.50;;
54005;SDS011;39919;38.160;-122.260;2022-08-04T06:19:15;8.88;;;2.33;;
54005;SDS011;39919;38.160;-122.260;2022-08-04T06:21:46;18.85;;;3.67;;
54005;SDS011;39919;38.160;-122.260;2022-08-04T06:29:12;16.17;;;3.15;;
54005;SDS011;39919;38.160;-122.260;2022-08-04T06:31:50;22.65;;;4.65;;
54005;SDS011;39919;38.160;-122.260;2022-08-04T06:34:29;23.17;;;4.30;;
54005;SDS011;39919;38.160;-122.260;2022-08-04T06:37:00;14.32;;;3.00;;
54005;SDS011;39919;38.160;-122.260;2022-08-04T06:39:29;12.77;;;3.13;;
54005;SDS011;39919;38.160;-122.260;2022-08-04T06:42:02;19.45;;;4.07;;
54005;SDS011;39919;38.160;-122.260;2022-08-04T06:44:32;12.20;;;3.13;;
54005;SDS011;39919;38.160;-122.260;2022-08-04T06:47:01;19.38;;;3.55;;
54005;SDS011;39919;38.160;-122.260;2022-08-04T06:52:16;14.70;;;3.13;;
54005;SDS011;39919;38.160;-122.260;2022-08-04T06:54:46;22.52;;;3.45;;
54005;SDS011;39919;38.160;-122.260;2022-08-04T06:57:16;15.75;;;2.97;;
54005;SDS011;39919;38.160;-122.260;2022-08-04T06:59:48;9.25;;;2.25;;
54005;SDS011;39919;38.160;-122.260;2022-08-04T07:02:19;19.30;;;2.72;;
54005;SDS011;39919;38.160;-122.260;2022-08-04T07:04:48;17.65;;;3.35;;
54005;SDS011;39919;38.160;-122.260;2022-08-04T07:07:21;16.08;;;3.42;;
54005;SDS011;39919;38.160;-122.260;2022-08-04T07:09:51;17.70;;;3.15;;
54005;SDS011;39919;38.160;-122.260;2022-08-04T07:12:20;16.52;;;3.15;;
54005;SDS011;39919;38.160;-122.260;2022-08-04T07:14:52;12.50;;;3.10;;
54005;SDS011;39919;38.160;-122.260;2022-08-04T07:17:22;22.20;;;4.18;;
54005;SDS011;39919;38.160;-122.260;2022-08-04T07:19:51;12.63;;;2.88;;
54005;SDS011;39919;38.160;-122.260;2022-08-04T07:24:52;19.38;;;4.43;;
54005;SDS011;39919;38.160;-122.260;2022-08-04T07:27:22;19.15;;;3.63;;
54005;SDS011;39919;38.160;-122.260;2022-08-04T07:29:52;20.17;;;3.28;;
54005;SDS011;39919;38.160;-122.260;2022-08-04T07:32:22;16.42;;;2.88;;
54005;SDS011;39919;38.160;-122.260;2022-08-04T07:34:52;13.10;;;3.03;;
54005;SDS011;39919;38.160;-122.260;2022-08-04T07:37:21;9.30;;;2.72;;
54005;SDS011;39919;38.160;-122.260;2022-08-04T07:39:52;13.07;;;3.40;;
54005;SDS011;39919;38.160;-122.260;2022-08-04T07:42:21;13.93;;;3.67;;
54005;SDS011;39919;38.160;-122.260;2022-08-04T07:44:51;14.40;;;2.40;;
54005;SDS011;39919;38.160;-122.260;2022-08-04T07:47:22;9.55;;;2.05;;
54005;SDS011;39919;38.160;-122.260;2022-08-04T07:49:52;13.55;;;2.28;;
54005;SDS011;39919;38.160;-122.260;2022-08-04T07:52:21;22.25;;;3.40;;
54005;SDS011;39919;38.160;-122.260;2022-08-04T07:54:54;17.48;;;3.72;;
54005;SDS011;39919;38.160;-122.260;2022-08-04T07:57:23;15.35;;;3.40;;
54005;SDS011;39919;38.160;-122.260;2022-08-04T07:59:55;15.23;;;2.47;;
54005;SDS011;39919;38.160;-122.260;2022-08-04T08:02:24;13.00;;;3.17;;
54005;SDS011;39919;38.160;-122.260;2022-08-04T08:04:52;15.75;;;3.03;;
54005;SDS011;39919;38.160;-122.260;2022-08-04T08:07:22;14.32;;;3.28;;
54005;SDS011;39919;38.160;-122.260;2022-08-04T08:09:51;13.07;;;3.10;;
54005;SDS011;39919;38.160;-122.260;2022-08-04T08:12:20;10.88;;;2.28;;
54005;SDS011;39919;38.160;-122.260;2022-08-04T08:14:50;19.15;;;2.60;;
54005;SDS011;39919;38.160;-122.260;2022-08-04T08:17:19;17.55;;;3.30;;
54005;SDS011;39919;38.160;-122.260;2022-08-04T08:19:48;15.32;;;3.70;;
54005;SDS011;39919;38.160;-122.260;2022-08-04T08:22:16;14.93;;;2.33;;
54005;SDS011;39919;38.160;-122.260;2022-08-04T08:24:46;14.73;;;3.58;;
54005;SDS011;39919;38.160;-122.260;2022-08-04T08:27:15;12.85;;;3.00;;
54005;SDS011;39919;38.160;-122.260;2022-08-04T08:29:46;28.42;;;4.85;;
54005;SDS011;39919;38.160;-122.260;2022-08-04T08:32:15;19.48;;;3.67;;
54005;SDS011;39919;38.160;-122.260;2022-08-04T08:34:45;18.02;;;3.58;;
54005;SDS011;39919;38.160;-122.260;2022-08-04T08:37:16;20.20;;;4.05;;
54005;SDS011;39919;38.160;-122.260;2022-08-04T08:39:50;16.98;;;3.45;;
54005;SDS011;39919;38.160;-122.260;2022-08-04T08:42:34;19.48;;;3.17;;
54005;SDS011;39919;38.160;-122.260;2022-08-04T08:45:16;13.40;;;2.38;;
54005;SDS011;39919;38.160;-122.260;2022-08-04T08:48:01;17.33;;;3.22;;
54005;SDS011;39919;38.160;-122.260;2022-08-04T08:50:51;21.30;;;3.80;;
54005;SDS011;39919;38.160;-122.260;2022-08-04T08:53:29;19.08;;;3.00;;
54005;SDS011;39919;38.160;-122.260;2022-08-04T08:56:04;17.42;;;3.30;;
54005;SDS011;39919;38.160;-122.260;2022-08-04T08:58:43;15.48;;;3.35;;
54005;SDS011;39919;38.160;-122.260;2022-08-04T09:01:19;17.77;;;3.67;;
54005;SDS011;39919;38.160;-122.260;2022-08-04T09:06:50;24.02;;;4.35;;
54005;SDS011;39919;38.160;-122.260;2022-08-04T09:09:35;15.77;;;3.28;;
54005;SDS011;39919;38.160;-122.260;2022-08-04T09:12:11;22.02;;;3.17;;
54005;SDS011;39919;38.160;-122.260;2022-08-04T09:14:44;12.23;;;2.85;;
54005;SDS011;39919;38.160;-122.260;2022-08-04T09:17:20;21.08;;;4.05;;
54005;SDS011;39919;38.160;-122.260;2022-08-04T09:19:51;18.60;;;4.00;;
54005;SDS011;39919;38.160;-122.260;2022-08-04T09:22:27;18.95;;;3.83;;
54005;SDS011;39919;38.160;-122.260;2022-08-04T09:25:02;18.85;;;4.07;;
54005;SDS011;39919;38.160;-122.260;2022-08-04T09:27:36;21.58;;;3.33;;
54005;SDS011;39919;38.160;-122.260;2022-08-04T09:30:09;21.70;;;3.90;;
54005;SDS011;39919;38.160;-122.260;2022-08-04T09:32:43;11.80;;;3.03;;
54005;SDS011;39919;38.160;-122.260;2022-08-04T09:35:16;21.27;;;3.60;;
54005;SDS011;39919;38.160;-122.260;2022-08-04T09:37:53;21.65;;;3.72;;
54005;SDS011;39919;38.160;-122.260;2022-08-04T09:40:25;17.27;;;3.08;;
54005;SDS011;39919;38.160;-122.260;2022-08-04T09:42:59;19.63;;;3.53;;
54005;SDS011;39919;38.160;-122.260;2022-08-04T09:45:33;23.17;;;3.92;;
54005;SDS011;39919;38.160;-122.260;2022-08-04T09:48:07;26.83;;;3.90;;
54005;SDS011;39919;38.160;-122.260;2022-08-04T09:50:37;17.45;;;3.75;;
54005;SDS011;39919;38.160;-122.260;2022-08-04T09:53:26;20.52;;;3.30;;
54005;SDS011;39919;38.160;-122.260;2022-08-04T09:56:02;15.30;;;3.17;;
54005;SDS011;39919;38.160;-122.260;2022-08-04T09:58:39;17.55;;;3.20;;
54005;SDS011;39919;38.160;-122.260;2022-08-04T10:01:12;19.02;;;3.22;;
54005;SDS011;39919;38.160;-122.260;2022-08-04T10:03:47;13.88;;;2.88;;
54005;SDS011;39919;38.160;-122.260;2022-08-04T10:09:11;18.90;;;2.45;;
54005;SDS011;39919;38.160;-122.260;2022-08-04T10:11:45;20.63;;;3.08;;
54005;SDS011;39919;38.160;-122.260;2022-08-04T10:14:25;21.52;;;3.42;;
54005;SDS011;39919;38.160;-122.260;2022-08-04T10:19:31;20.85;;;3.28;;
54005;SDS011;39919;38.160;-122.260;2022-08-04T10:22:07;18.60;;;3.33;;
54005;SDS011;39919;38.160;-122.260;2022-08-04T10:24:44;25.13;;;4.57;;
54005;SDS011;39919;38.160;-122.260;2022-08-04T10:27:20;15.30;;;2.60;;
54005;SDS011;39919;38.160;-122.260;2022-08-04T10:29:51;23.50;;;3.58;;
54005;SDS011;39919;38.160;-122.260;2022-08-04T10:32:23;26.33;;;4.80;;
54005;SDS011;39919;38.160;-122.260;2022-08-04T10:34:58;18.50;;;3.95;;
54005;SDS011;39919;38.160;-122.260;2022-08-04T10:37:30;12.30;;;2.13;;
54005;SDS011;39919;38.160;-122.260;2022-08-04T10:40:02;17.35;;;3.13;;
54005;SDS011;39919;38.160;-122.260;2022-08-04T10:42:52;15.25;;;2.53;;
54005;SDS011;39919;38.160;-122.260;2022-08-04T10:45:25;15.23;;;2.95;;
54005;SDS011;39919;38.160;-122.260;2022-08-04T10:47:58;20.23;;;3.78;;
54005;SDS011;39919;38.160;-122.260;2022-08-04T10:50:32;23.30;;;3.30;;
54005;SDS011;39919;38.160;-122.260;2022-08-04T10:53:04;23.80;;;3.83;;
54005;SDS011;39919;38.160;-122.260;2022-08-04T10:55:35;15.10;;;2.90;;
54005;SDS011;39919;38.160;-122.260;2022-08-04T10:58:08;16.15;;;2.70;;
54005;SDS011;39919;38.160;-122.260;2022-08-04T11:00:41;15.23;;;3.08;;
54005;SDS011;39919;38.160;-122.260;2022-08-04T11:03:13;14.40;;;3.38;;
54005;SDS011;39919;38.160;-122.260;2022-08-04T11:05:47;19.20;;;3.83;;
54005;SDS011;39919;38.160;-122.260;2022-08-04T11:08:17;20.52;;;3.13;;
54005;SDS011;39919;38.160;-122.260;2022-08-04T11:10:50;23.23;;;3.55;;
54005;SDS011;39919;38.160;-122.260;2022-08-04T11:13:30;20.63;;;2.95;;
54005;SDS011;39919;38.160;-122.260;2022-08-04T11:16:02;23.58;;;3.67;;
54005;SDS011;39919;38.160;-122.260;2022-08-04T11:18:34;20.38;;;4.25;;
54005;SDS011;39919;38.160;-122.260;2022-08-04T11:21:07;20.17;;;3.50;;
54005;SDS011;39919;38.160;-122.260;2022-08-04T11:23:39;17.15;;;2.55;;
54005;SDS011;39919;38.160;-122.260;2022-08-04T11:26:12;15.27;;;2.78;;
54005;SDS011;39919;38.160;-122.260;2022-08-04T11:28:46;21.00;;;4.40;;
54005;SDS011;39919;38.160;-122.260;2022-08-04T11:31:18;40.97;;;4.68;;
54005;SDS011;39919;38.160;-122.260;2022-08-04T11:33:51;12.70;;;2.83;;
54005;SDS011;39919;38.160;-122.260;2022-08-04T11:36:28;23.90;;;3.95;;
54005;SDS011;39919;38.160;-122.260;2022-08-04T11:39:01;17.47;;;3.70;;
54005;SDS011;39919;38.160;-122.260;2022-08-04T11:41:37;16.92;;;3.28;;
54005;SDS011;39919;38.160;-122.260;2022-08-04T11:44:06;15.60;;;3.38;;
54005;SDS011;39919;38.160;-122.260;2022-08-04T11:46:42;15.30;;;3.83;;
54005;SDS011;39919;38.160;-122.260;2022-08-04T11:49:14;21.27;;;3.60;;
54005;SDS011;39919;38.160;-122.260;2022-08-04T11:51:47;15.57;;;2.45;;
54005;SDS011;39919;38.160;-122.260;2022-08-04T11:54:18;18.80;;;3.28;;
54005;SDS011;39919;38.160;-122.260;2022-08-04T11:56:48;17.38;;;2.88;;
54005;SDS011;39919;38.160;-122.260;2022-08-04T11:59:16;25.80;;;3.85;;
54005;SDS011;39919;38.160;-122.260;2022-08-04T12:01:49;22.23;;;4.10;;
54005;SDS011;39919;38.160;-122.260;2022-08-04T12:04:23;16.85;;;3.17;;
54005;SDS011;39919;38.160;-122.260;2022-08-04T12:07:12;14.88;;;2.72;;
54005;SDS011;39919;38.160;-122.260;2022-08-04T12:09:35;17.40;;;3.20;;
54005;SDS011;39919;38.160;-122.260;2022-08-04T12:12:09;25.30;;;3.83;;
54005;SDS011;39919;38.160;-122.260;2022-08-04T12:14:46;17.00;;;3.00;;
54005;SDS011;39919;38.160;-122.260;2022-08-04T12:17:20;24.90;;;3.13;;
54005;SDS011;39919;38.160;-122.260;2022-08-04T12:19:49;17.50;;;2.97;;
54005;SDS011;39919;38.160;-122.260;2022-08-04T12:22:21;13.20;;;2.35;;
54005;SDS011;39919;38.160;-122.260;2022-08-04T12:24:51;19.58;;;3.60;;
54005;SDS011;39919;38.160;-122.260;2022-08-04T12:27:23;19.23;;;3.63;;
54005;SDS011;39919;38.160;-122.260;2022-08-04T12:29:54;18.77;;;3.50;;
54005;SDS011;39919;38.160;-122.260;2022-08-04T12:32:28;13.77;;;2.00;;
54005;SDS011;39919;38.160;-122.260;2022-08-04T12:35:02;22.33;;;3.63;;
54005;SDS011;39919;38.160;-122.260;2022-08-04T12:37:37;14.88;;;3.58;;
54005;SDS011;39919;38.160;-122.260;2022-08-04T12:40:11;15.73;;;2.58;;
54005;SDS011;39919;38.160;-122.260;2022-08-04T12:42:43;14.25;;;2.35;;
54005;SDS011;39919;38.160;-122.260;2022-08-04T12:45:12;24.48;;;3.55;;
54005;SDS011;39919;38.160;-122.260;2022-08-04T12:47:41;19.65;;;3.47;;
54005;SDS011;39919;38.160;-122.260;2022-08-04T12:50:14;10.73;;;2.00;;
54005;SDS011;39919;38.160;-122.260;2022-08-04T12:52:47;14.95;;;2.80;;
54005;SDS011;39919;38.160;-122.260;2022-08-04T12:55:19;19.95;;;3.65;;
54005;SDS011;39919;38.160;-122.260;2022-08-04T12:57:51;22.33;;;3.55;;
54005;SDS011;39919;38.160;-122.260;2022-08-04T13:00:28;15.48;;;2.70;;
54005;SDS011;39919;38.160;-122.260;2022-08-04T13:03:03;12.60;;;2.72;;
54005;SDS011;39919;38.160;-122.260;2022-08-04T13:05:33;24.00;;;4.25;;
54005;SDS011;39919;38.160;-122.260;2022-08-04T13:08:06;22.60;;;3.90;;
54005;SDS011;39919;38.160;-122.260;2022-08-04T13:10:36;14.43;;;3.55;;
54005;SDS011;39919;38.160;-122.260;2022-08-04T13:13:10;20.38;;;2.88;;
54005;SDS011;39919;38.160;-122.260;2022-08-04T13:15:40;24.75;;;3.67;;
54005;SDS011;39919;38.160;-122.260;2022-08-04T13:18:10;26.98;;;3.85;;
54005;SDS011;39919;38.160;-122.260;2022-08-04T13:20:40;19.17;;;3.88;;
54005;SDS011;39919;38.160;-122.260;2022-08-04T13:23:14;24.05;;;3.55;;
54005;SDS011;39919;38.160;-122.260;2022-08-04T13:25:44;12.38;;;2.65;;
54005;SDS011;39919;38.160;-122.260;2022-08-04T13:28:15;15.57;;;3.03;;
54005;SDS011;39919;38.160;-122.260;2022-08-04T13:30:45;24.33;;;3.58;;
54005;SDS011;39919;38.160;-122.260;2022-08-04T13:33:14;20.55;;;3.20;;
54005;SDS011;39919;38.160;-122.260;2022-08-04T13:35:44;16.13;;;3.15;;
54005;SDS011;39919;38.160;-122.260;2022-08-04T13:38:15;22.90;;;3.47;;
54005;SDS011;39919;38.160;-122.260;2022-08-04T13:40:45;12.27;;;2.30;;
54005;SDS011;39919;38.160;-122.260;2022-08-04T13:43:22;19.58;;;2.65;;
54005;SDS011;39919;38.160;-122.260;2022-08-04T13:45:57;16.70;;;3.08;;
54005;SDS011;39919;38.160;-122.260;2022-08-04T13:48:30;7.35;;;1.75;;
54005;SDS011;39919;38.160;-122.260;2022-08-04T13:51:00;19.55;;;3.78;;
54005;SDS011;39919;38.160;-122.260;2022-08-04T13:53:33;14.13;;;2.35;;
54005;SDS011;39919;38.160;-122.260;2022-08-04T13:56:04;21.23;;;4.40;;
54005;SDS011;39919;38.160;-122.260;2022-08-04T13:58:40;12.45;;;2.15;;
54005;SDS011;39919;38.160;-122.260;2022-08-04T14:01:12;20.92;;;3.70;;
54005;SDS011;39919;38.160;-122.260;2022-08-04T14:03:44;17.08;;;2.50;;
54005;SDS011;39919;38.160;-122.260;2022-08-04T14:06:23;18.60;;;3.40;;
54005;SDS011;39919;38.160;-122.260;2022-08-04T14:08:57;16.50;;;3.35;;
54005;SDS011;39919;38.160;-122.260;2022-08-04T14:11:31;21.95;;;3.42;;
54005;SDS011;39919;38.160;-122.260;2022-08-04T14:14:06;13.50;;;1.92;;
54005;SDS011;39919;38.160;-122.260;2022-08-04T14:16:53;15.52;;;3.53;;
54005;SDS011;39919;38.160;-122.260;2022-08-04T14:19:23;18.05;;;3.28;;
54005;SDS011;39919;38.160;-122.260;2022-08-04T14:21:53;15.85;;;2.50;;
54005;SDS011;39919;38.160;-122.260;2022-08-04T14:24:28;21.45;;;3.45;;
54005;SDS011;39919;38.160;-122.260;2022-08-04T14:26:59;26.80;;;3.72;;
54005;SDS011;39919;38.160;-122.260;2022-08-04T14:29:35;17.02;;;3.67;;
54005;SDS011;39919;38.160;-122.260;2022-08-04T14:32:07;14.23;;;2.60;;
54005;SDS011;39919;38.160;-122.260;2022-08-04T14:34:37;16.15;;;2.42;;
54005;SDS011;39919;38.160;-122.260;2022-08-04T14:37:07;13.20;;;2.85;;
54005;SDS011;39919;38.160;-122.260;2022-08-04T14:39:38;14.07;;;3.65;;
54005;SDS011;39919;38.160;-122.260;2022-08-04T14:42:07;15.77;;;2.45;;
54005;SDS011;39919;38.160;-122.260;2022-08-04T14:47:42;11.20;;;2.78;;
54005;SDS011;39919;38.160;-122.260;2022-08-04T14:50:14;11.52;;;2.30;;
54005;SDS011;39919;38.160;-122.260;2022-08-04T14:52:44;12.82;;;2.50;;
54005;SDS011;39919;38.160;-122.260;2022-08-04T14:55:20;12.40;;;2.15;;
54005;SDS011;39919;38.160;-122.260;2022-08-04T14:57:49;7.40;;;2.15;;
54005;SDS011;39919;38.160;-122.260;2022-08-04T15:00:23;14.73;;;3.13;;
54005;SDS011;39919;38.160;-122.260;2022-08-04T15:02:55;9.40;;;2.35;;
54005;SDS011;39919;38.160;-122.260;2022-08-04T15:05:25;7.80;;;1.63;;
54005;SDS011;39919;38.160;-122.260;2022-08-04T15:07:56;12.57;;;1.80;;
54005;SDS011;39919;38.160;-122.260;2022-08-04T15:10:31;11.65;;;1.92;;
54005;SDS011;39919;38.160;-122.260;2022-08-04T15:13:01;12.85;;;2.05;;
54005;SDS011;39919;38.160;-122.260;2022-08-04T15:15:32;17.77;;;3.35;;
54005;SDS011;39919;38.160;-122.260;2022-08-04T15:18:02;13.43;;;2.10;;
54005;SDS011;39919;38.160;-122.260;2022-08-04T15:20:34;13.25;;;2.88;;
54005;SDS011;39919;38.160;-122.260;2022-08-04T15:23:04;14.05;;;2.45;;
54005;SDS011;39919;38.160;-122.260;2022-08-04T15:25:41;9.82;;;2.15;;
54005;SDS011;39919;38.160;-122.260;2022-08-04T15:28:15;13.57;;;2.20;;
54005;SDS011;39919;38.160;-122.260;2022-08-04T15:30:49;11.30;;;1.65;;
54005;SDS011;39919;38.160;-122.260;2022-08-04T15:33:21;15.75;;;2.30;;
54005;SDS011;39919;38.160;-122.260;2022-08-04T15:36:10;12.02;;;2.17;;
54005;SDS011;39919;38.160;-122.260;2022-08-04T15:38:38;15.32;;;2.50;;
54005;SDS011;39919;38.160;-122.260;2022-08-04T15:41:27;10.82;;;2.38;;